sensor_id;sensor_type;location;lat;lon;timestamp;temperature;humidity
25112;DHT22;13092;51.996;4.458;2023-01-29T00:00:03;6.00;99.90
25112;DHT22;13092;51.996;4.458;2023-01-29T00:02:36;6.00;99.90
25112;DHT22;13092;51.996;4.458;2023-01-29T00:05:06;6.00;99.90
25112;DHT22;13092;51.996;4.458;2023-01-29T00:07:52;6.00;99.90
25112;DHT22;13092;51.996;4.458;2023-01-29T00:10:23;6.00;99.90
25112;DHT22;13092;51.996;4.458;2023-01-29T00:12:51;6.20;99.90
25112;DHT22;13092;51.996;4.458;2023-01-29T00:15:19;6.00;99.90
25112;DHT22;13092;51.996;4.458;2023-01-29T00:17:47;6.00;99.90
25112;DHT22;13092;51.996;4.458;2023-01-29T00:20:15;6.00;99.90
25112;DHT22;13092;51.996;4.458;2023-01-29T00:22:44;6.00;99.90
25112;DHT22;13092;51.996;4.458;2023-01-29T00:25:12;6.00;99.90
25112;DHT22;13092;51.996;4.458;2023-01-29T00:27:42;6.00;99.90
25112;DHT22;13092;51.996;4.458;2023-01-29T00:30:11;6.00;99.90
25112;DHT22;13092;51.996;4.458;2023-01-29T00:32:40;5.90;99.90
25112;DHT22;13092;51.996;4.458;2023-01-29T00:35:08;5.90;99.90
25112;DHT22;13092;51.996;4.458;2023-01-29T00:37:37;5.90;99.90
25112;DHT22;13092;51.996;4.458;2023-01-29T00:40:06;5.90;99.90
25112;DHT22;13092;51.996;4.458;2023-01-29T00:42:34;5.90;99.90
25112;DHT22;13092;51.996;4.458;2023-01-29T00:45:21;5.90;99.90
25112;DHT22;13092;51.996;4.458;2023-01-29T00:47:49;5.90;99.90
25112;DHT22;13092;51.996;4.458;2023-01-29T00:50:17;5.90;99.90
25112;DHT22;13092;51.996;4.458;2023-01-29T00:52:45;5.90;99.90
25112;DHT22;13092;51.996;4.458;2023-01-29T00:55:15;5.90;99.90
25112;DHT22;13092;51.996;4.458;2023-01-29T00:57:44;5.90;99.90
25112;DHT22;13092;51.996;4.458;2023-01-29T01:00:14;5.90;99.90
25112;DHT22;13092;51.996;4.458;2023-01-29T01:02:45;5.90;99.90
25112;DHT22;13092;51.996;4.458;2023-01-29T01:05:31;5.90;99.90
25112;DHT22;13092;51.996;4.458;2023-01-29T01:07:59;5.90;99.90
25112;DHT22;13092;51.996;4.458;2023-01-29T01:10:31;5.90;99.90
25112;DHT22;13092;51.996;4.458;2023-01-29T01:13:00;5.90;99.90
25112;DHT22;13092;51.996;4.458;2023-01-29T01:15:31;5.90;99.90
25112;DHT22;13092;51.996;4.458;2023-01-29T01:18:02;6.00;99.90
25112;DHT22;13092;51.996;4.458;2023-01-29T01:20:33;5.90;99.90
25112;DHT22;13092;51.996;4.458;2023-01-29T01:23:02;5.90;99.90
25112;DHT22;13092;51.996;4.458;2023-01-29T01:25:31;5.90;99.90
25112;DHT22;13092;51.996;4.458;2023-01-29T01:27:59;5.90;99.90
25112;DHT22;13092;51.996;4.458;2023-01-29T01:30:28;6.00;99.90
25112;DHT22;13092;51.996;4.458;2023-01-29T01:32:56;5.90;99.90
25112;DHT22;13092;51.996;4.458;2023-01-29T01:35:26;5.90;99.90
25112;DHT22;13092;51.996;4.458;2023-01-29T01:37:54;6.10;99.90
25112;DHT22;13092;51.996;4.458;2023-01-29T01:40:23;5.90;99.90
25112;DHT22;13092;51.996;4.458;2023-01-29T01:42:53;5.90;99.90
25112;DHT22;13092;51.996;4.458;2023-01-29T01:45:25;5.80;99.90
25112;DHT22;13092;51.996;4.458;2023-01-29T01:47:56;5.80;99.90
25112;DHT22;13092;51.996;4.458;2023-01-29T01:50:30;5.80;99.90
25112;DHT22;13092;51.996;4.458;2023-01-29T01:53:03;5.80;99.90
25112;DHT22;13092;51.996;4.458;2023-01-29T01:55:32;5.80;99.90
25112;DHT22;13092;51.996;4.458;2023-01-29T01:58:05;5.80;99.90
25112;DHT22;13092;51.996;4.458;2023-01-29T02:00:36;5.80;99.90
25112;DHT22;13092;51.996;4.458;2023-01-29T02:03:05;5.80;99.90
25112;DHT22;13092;51.996;4.458;2023-01-29T02:05:54;5.80;99.90
25112;DHT22;13092;51.996;4.458;2023-01-29T02:08:45;5.80;99.90
25112;DHT22;13092;51.996;4.458;2023-01-29T02:11:31;5.80;99.90
25112;DHT22;13092;51.996;4.458;2023-01-29T02:13:59;5.80;99.90
25112;DHT22;13092;51.996;4.458;2023-01-29T02:16:27;5.80;99.90
25112;DHT22;13092;51.996;4.458;2023-01-29T02:18:56;5.80;99.90
25112;DHT22;13092;51.996;4.458;2023-01-29T02:22:03;5.70;99.90
25112;DHT22;13092;51.996;4.458;2023-01-29T02:24:59;5.80;99.90
25112;DHT22;13092;51.996;4.458;2023-01-29T02:28:11;5.80;99.90
25112;DHT22;13092;51.996;4.458;2023-01-29T02:30:49;5.80;99.90
25112;DHT22;13092;51.996;4.458;2023-01-29T02:33:28;5.80;99.90
25112;DHT22;13092;51.996;4.458;2023-01-29T02:36:04;5.80;99.90
25112;DHT22;13092;51.996;4.458;2023-01-29T02:38:39;5.80;99.90
25112;DHT22;13092;51.996;4.458;2023-01-29T02:41:14;5.80;99.90
25112;DHT22;13092;51.996;4.458;2023-01-29T02:43:46;5.80;99.90
25112;DHT22;13092;51.996;4.458;2023-01-29T02:46:17;5.80;99.90
25112;DHT22;13092;51.996;4.458;2023-01-29T02:48:56;5.80;99.90
25112;DHT22;13092;51.996;4.458;2023-01-29T02:51:30;5.80;99.90
25112;DHT22;13092;51.996;4.458;2023-01-29T02:54:05;5.80;99.90
25112;DHT22;13092;51.996;4.458;2023-01-29T02:56:36;5.80;99.90
25112;DHT22;13092;51.996;4.458;2023-01-29T02:59:12;5.80;99.90
25112;DHT22;13092;51.996;4.458;2023-01-29T03:01:45;5.90;99.90
25112;DHT22;13092;51.996;4.458;2023-01-29T03:04:26;5.90;99.90
25112;DHT22;13092;51.996;4.458;2023-01-29T03:07:01;5.90;99.90
25112;DHT22;13092;51.996;4.458;2023-01-29T03:09:33;5.80;99.90
25112;DHT22;13092;51.996;4.458;2023-01-29T03:12:06;5.90;99.90
25112;DHT22;13092;51.996;4.458;2023-01-29T03:14:49;5.90;99.90
25112;DHT22;13092;51.996;4.458;2023-01-29T03:17:46;5.90;99.90
25112;DHT22;13092;51.996;4.458;2023-01-29T03:20:21;5.90;99.90
25112;DHT22;13092;51.996;4.458;2023-01-29T03:22:55;5.80;99.90
25112;DHT22;13092;51.996;4.458;2023-01-29T03:25:27;5.70;99.90
25112;DHT22;13092;51.996;4.458;2023-01-29T03:28:16;5.90;99.90
25112;DHT22;13092;51.996;4.458;2023-01-29T03:31:05;5.80;99.90
25112;DHT22;13092;51.996;4.458;2023-01-29T03:33:57;5.90;99.90
25112;DHT22;13092;51.996;4.458;2023-01-29T03:36:31;5.90;99.90
25112;DHT22;13092;51.996;4.458;2023-01-29T03:39:04;5.90;99.90
25112;DHT22;13092;51.996;4.458;2023-01-29T03:41:35;5.90;99.90
25112;DHT22;13092;51.996;4.458;2023-01-29T03:44:11;5.90;99.90
25112;DHT22;13092;51.996;4.458;2023-01-29T03:46:47;5.90;99.90
25112;DHT22;13092;51.996;4.458;2023-01-29T03:49:23;5.90;99.90
25112;DHT22;13092;51.996;4.458;2023-01-29T03:51:59;5.90;99.90
25112;DHT22;13092;51.996;4.458;2023-01-29T03:54:37;5.90;99.90
25112;DHT22;13092;51.996;4.458;2023-01-29T03:57:12;5.90;99.90
25112;DHT22;13092;51.996;4.458;2023-01-29T03:59:50;5.90;99.90
25112;DHT22;13092;51.996;4.458;2023-01-29T04:02:26;5.80;99.90
25112;DHT22;13092;51.996;4.458;2023-01-29T04:04:58;5.90;99.90
25112;DHT22;13092;51.996;4.458;2023-01-29T04:07:27;5.90;99.90
25112;DHT22;13092;51.996;4.458;2023-01-29T04:10:02;5.90;99.90
25112;DHT22;13092;51.996;4.458;2023-01-29T04:12:36;5.90;99.90
25112;DHT22;13092;51.996;4.458;2023-01-29T04:15:08;5.90;99.90
25112;DHT22;13092;51.996;4.458;2023-01-29T04:17:41;5.90;99.90
25112;DHT22;13092;51.996;4.458;2023-01-29T04:20:10;5.90;99.90
25112;DHT22;13092;51.996;4.458;2023-01-29T04:22:41;5.90;99.90
25112;DHT22;13092;51.996;4.458;2023-01-29T04:25:14;5.90;99.90
25112;DHT22;13092;51.996;4.458;2023-01-29T04:27:51;5.90;99.90
25112;DHT22;13092;51.996;4.458;2023-01-29T04:30:28;5.90;99.90
25112;DHT22;13092;51.996;4.458;2023-01-29T04:33:17;5.90;99.90
25112;DHT22;13092;51.996;4.458;2023-01-29T04:36:09;5.90;99.90
25112;DHT22;13092;51.996;4.458;2023-01-29T04:38:53;5.90;99.90
25112;DHT22;13092;51.996;4.458;2023-01-29T04:41:29;5.70;99.90
25112;DHT22;13092;51.996;4.458;2023-01-29T04:44:04;5.80;99.90
25112;DHT22;13092;51.996;4.458;2023-01-29T04:46:42;5.80;99.90
25112;DHT22;13092;51.996;4.458;2023-01-29T04:49:24;5.80;99.90
25112;DHT22;13092;51.996;4.458;2023-01-29T04:51:59;5.70;99.90
25112;DHT22;13092;51.996;4.458;2023-01-29T04:54:35;5.70;99.90
25112;DHT22;13092;51.996;4.458;2023-01-29T04:57:12;5.70;99.90
25112;DHT22;13092;51.996;4.458;2023-01-29T04:59:45;5.70;99.90
25112;DHT22;13092;51.996;4.458;2023-01-29T05:02:16;5.80;99.90
25112;DHT22;13092;51.996;4.458;2023-01-29T05:04:47;5.70;99.90
25112;DHT22;13092;51.996;4.458;2023-01-29T05:07:17;5.70;99.90
25112;DHT22;13092;51.996;4.458;2023-01-29T05:09:47;5.70;99.90
25112;DHT22;13092;51.996;4.458;2023-01-29T05:12:16;5.70;99.90
25112;DHT22;13092;51.996;4.458;2023-01-29T05:14:46;5.70;99.90
25112;DHT22;13092;51.996;4.458;2023-01-29T05:17:17;5.70;99.90
25112;DHT22;13092;51.996;4.458;2023-01-29T05:19:48;5.70;99.90
25112;DHT22;13092;51.996;4.458;2023-01-29T05:22:17;5.70;99.90
25112;DHT22;13092;51.996;4.458;2023-01-29T05:24:49;5.70;99.90
25112;DHT22;13092;51.996;4.458;2023-01-29T05:27:19;5.70;99.90
25112;DHT22;13092;51.996;4.458;2023-01-29T05:30:07;5.70;99.90
25112;DHT22;13092;51.996;4.458;2023-01-29T05:32:36;5.70;99.90
25112;DHT22;13092;51.996;4.458;2023-01-29T05:35:07;5.70;99.90
25112;DHT22;13092;51.996;4.458;2023-01-29T05:37:36;5.70;99.90
25112;DHT22;13092;51.996;4.458;2023-01-29T05:40:05;5.60;99.90
25112;DHT22;13092;51.996;4.458;2023-01-29T05:42:35;5.70;99.90
25112;DHT22;13092;51.996;4.458;2023-01-29T05:45:04;5.70;99.90
25112;DHT22;13092;51.996;4.458;2023-01-29T05:47:32;5.80;99.90
25112;DHT22;13092;51.996;4.458;2023-01-29T05:50:00;5.80;99.90
25112;DHT22;13092;51.996;4.458;2023-01-29T05:52:31;5.80;99.90
25112;DHT22;13092;51.996;4.458;2023-01-29T05:54:59;5.80;99.90
25112;DHT22;13092;51.996;4.458;2023-01-29T05:57:27;5.80;99.90
25112;DHT22;13092;51.996;4.458;2023-01-29T05:59:55;5.80;99.90
25112;DHT22;13092;51.996;4.458;2023-01-29T06:02:23;5.80;99.90
25112;DHT22;13092;51.996;4.458;2023-01-29T06:04:51;5.80;99.90
25112;DHT22;13092;51.996;4.458;2023-01-29T06:07:19;5.80;99.90
25112;DHT22;13092;51.996;4.458;2023-01-29T06:09:49;5.90;99.90
25112;DHT22;13092;51.996;4.458;2023-01-29T06:12:17;5.70;99.90
25112;DHT22;13092;51.996;4.458;2023-01-29T06:14:45;5.90;99.90
25112;DHT22;13092;51.996;4.458;2023-01-29T06:17:13;5.90;99.90
25112;DHT22;13092;51.996;4.458;2023-01-29T06:19:41;5.90;99.90
25112;DHT22;13092;51.996;4.458;2023-01-29T06:22:10;5.90;99.90
25112;DHT22;13092;51.996;4.458;2023-01-29T06:24:38;5.90;99.90
25112;DHT22;13092;51.996;4.458;2023-01-29T06:27:08;5.80;99.90
25112;DHT22;13092;51.996;4.458;2023-01-29T06:29:36;5.90;99.90
25112;DHT22;13092;51.996;4.458;2023-01-29T06:32:04;5.90;99.90
25112;DHT22;13092;51.996;4.458;2023-01-29T06:34:33;5.80;99.90
25112;DHT22;13092;51.996;4.458;2023-01-29T06:37:01;5.80;99.90
25112;DHT22;13092;51.996;4.458;2023-01-29T06:39:29;5.80;99.90
25112;DHT22;13092;51.996;4.458;2023-01-29T06:41:57;5.70;99.90
25112;DHT22;13092;51.996;4.458;2023-01-29T06:44:27;6.00;99.90
25112;DHT22;13092;51.996;4.458;2023-01-29T06:46:55;5.80;99.90
25112;DHT22;13092;51.996;4.458;2023-01-29T06:49:23;5.90;99.90
25112;DHT22;13092;51.996;4.458;2023-01-29T06:51:52;5.90;99.90
25112;DHT22;13092;51.996;4.458;2023-01-29T06:54:20;5.80;99.90
25112;DHT22;13092;51.996;4.458;2023-01-29T06:56:48;5.80;99.90
25112;DHT22;13092;51.996;4.458;2023-01-29T06:59:17;5.80;99.90
25112;DHT22;13092;51.996;4.458;2023-01-29T07:01:46;5.80;99.90
25112;DHT22;13092;51.996;4.458;2023-01-29T07:04:15;5.80;99.90
25112;DHT22;13092;51.996;4.458;2023-01-29T07:06:43;5.80;99.90
25112;DHT22;13092;51.996;4.458;2023-01-29T07:09:17;5.80;99.90
25112;DHT22;13092;51.996;4.458;2023-01-29T07:11:45;5.80;99.90
25112;DHT22;13092;51.996;4.458;2023-01-29T07:14:13;5.80;99.90
25112;DHT22;13092;51.996;4.458;2023-01-29T07:16:41;5.80;99.90
25112;DHT22;13092;51.996;4.458;2023-01-29T07:19:11;5.80;99.90
25112;DHT22;13092;51.996;4.458;2023-01-29T07:21:39;5.80;99.90
25112;DHT22;13092;51.996;4.458;2023-01-29T07:24:08;5.80;99.90
25112;DHT22;13092;51.996;4.458;2023-01-29T07:26:36;5.80;99.90
25112;DHT22;13092;51.996;4.458;2023-01-29T07:29:04;5.90;99.90
25112;DHT22;13092;51.996;4.458;2023-01-29T07:31:32;6.00;99.90
25112;DHT22;13092;51.996;4.458;2023-01-29T07:34:01;5.90;99.90
25112;DHT22;13092;51.996;4.458;2023-01-29T07:36:31;5.90;99.90
25112;DHT22;13092;51.996;4.458;2023-01-29T07:38:59;5.90;99.90
25112;DHT22;13092;51.996;4.458;2023-01-29T07:41:27;5.90;99.90
25112;DHT22;13092;51.996;4.458;2023-01-29T07:43:55;5.90;99.90
25112;DHT22;13092;51.996;4.458;2023-01-29T07:46:23;5.90;99.90
25112;DHT22;13092;51.996;4.458;2023-01-29T07:48:51;6.00;99.90
25112;DHT22;13092;51.996;4.458;2023-01-29T07:51:20;5.90;99.90
25112;DHT22;13092;51.996;4.458;2023-01-29T07:53:49;5.90;99.90
25112;DHT22;13092;51.996;4.458;2023-01-29T07:56:18;5.90;99.90
25112;DHT22;13092;51.996;4.458;2023-01-29T07:58:46;5.90;99.90
25112;DHT22;13092;51.996;4.458;2023-01-29T08:01:14;5.90;99.90
25112;DHT22;13092;51.996;4.458;2023-01-29T08:03:42;5.80;99.90
25112;DHT22;13092;51.996;4.458;2023-01-29T08:06:11;5.90;99.90
25112;DHT22;13092;51.996;4.458;2023-01-29T08:08:39;5.90;99.90
25112;DHT22;13092;51.996;4.458;2023-01-29T08:11:09;5.90;99.90
25112;DHT22;13092;51.996;4.458;2023-01-29T08:13:38;5.90;99.90
25112;DHT22;13092;51.996;4.458;2023-01-29T08:16:07;5.90;99.90
25112;DHT22;13092;51.996;4.458;2023-01-29T08:18:35;5.90;99.90
25112;DHT22;13092;51.996;4.458;2023-01-29T08:21:04;5.70;99.90
25112;DHT22;13092;51.996;4.458;2023-01-29T08:23:32;5.80;99.90
25112;DHT22;13092;51.996;4.458;2023-01-29T08:26:01;5.90;99.90
25112;DHT22;13092;51.996;4.458;2023-01-29T08:28:32;5.90;99.90
25112;DHT22;13092;51.996;4.458;2023-01-29T08:31:01;6.10;99.90
25112;DHT22;13092;51.996;4.458;2023-01-29T08:33:29;5.90;99.90
25112;DHT22;13092;51.996;4.458;2023-01-29T08:36:06;5.90;99.90
25112;DHT22;13092;51.996;4.458;2023-01-29T08:38:35;5.90;99.90
25112;DHT22;13092;51.996;4.458;2023-01-29T08:41:04;6.00;99.90
25112;DHT22;13092;51.996;4.458;2023-01-29T08:43:34;6.00;99.90
25112;DHT22;13092;51.996;4.458;2023-01-29T08:46:05;6.00;99.90
25112;DHT22;13092;51.996;4.458;2023-01-29T08:48:34;6.00;99.90
25112;DHT22;13092;51.996;4.458;2023-01-29T08:51:02;5.90;99.90
25112;DHT22;13092;51.996;4.458;2023-01-29T08:53:31;6.10;99.90
25112;DHT22;13092;51.996;4.458;2023-01-29T08:55:59;5.90;99.90
25112;DHT22;13092;51.996;4.458;2023-01-29T08:58:27;6.00;99.90
25112;DHT22;13092;51.996;4.458;2023-01-29T09:01:04;6.00;99.90
25112;DHT22;13092;51.996;4.458;2023-01-29T09:03:36;6.00;99.90
25112;DHT22;13092;51.996;4.458;2023-01-29T09:06:08;6.10;99.90
25112;DHT22;13092;51.996;4.458;2023-01-29T09:08:36;6.10;99.90
25112;DHT22;13092;51.996;4.458;2023-01-29T09:11:05;6.10;99.90
25112;DHT22;13092;51.996;4.458;2023-01-29T09:13:33;6.20;99.90
25112;DHT22;13092;51.996;4.458;2023-01-29T09:16:03;6.10;99.90
25112;DHT22;13092;51.996;4.458;2023-01-29T09:18:35;6.10;99.90
25112;DHT22;13092;51.996;4.458;2023-01-29T09:21:04;6.10;99.90
25112;DHT22;13092;51.996;4.458;2023-01-29T09:23:32;6.10;99.90
25112;DHT22;13092;51.996;4.458;2023-01-29T09:26:01;6.10;99.90
25112;DHT22;13092;51.996;4.458;2023-01-29T09:28:30;6.20;99.90
25112;DHT22;13092;51.996;4.458;2023-01-29T09:31:00;6.10;99.90
25112;DHT22;13092;51.996;4.458;2023-01-29T09:33:30;6.20;99.90
25112;DHT22;13092;51.996;4.458;2023-01-29T09:35:58;6.20;99.90
25112;DHT22;13092;51.996;4.458;2023-01-29T09:38:27;6.30;99.90
25112;DHT22;13092;51.996;4.458;2023-01-29T09:41:01;6.30;99.90
25112;DHT22;13092;51.996;4.458;2023-01-29T09:43:39;6.20;99.90
25112;DHT22;13092;51.996;4.458;2023-01-29T09:46:15;6.30;99.90
25112;DHT22;13092;51.996;4.458;2023-01-29T09:48:56;6.30;99.90
25112;DHT22;13092;51.996;4.458;2023-01-29T09:51:27;6.30;99.90
25112;DHT22;13092;51.996;4.458;2023-01-29T09:54:09;6.30;99.90
25112;DHT22;13092;51.996;4.458;2023-01-29T09:56:38;6.30;99.90
25112;DHT22;13092;51.996;4.458;2023-01-29T09:59:08;6.30;99.90
25112;DHT22;13092;51.996;4.458;2023-01-29T10:01:43;6.30;99.90
25112;DHT22;13092;51.996;4.458;2023-01-29T10:07:25;6.30;99.90
25112;DHT22;13092;51.996;4.458;2023-01-29T10:10:15;6.30;99.90
25112;DHT22;13092;51.996;4.458;2023-01-29T10:12:59;6.30;99.90
25112;DHT22;13092;51.996;4.458;2023-01-29T10:15:45;6.30;99.90
25112;DHT22;13092;51.996;4.458;2023-01-29T10:18:43;6.30;99.90
25112;DHT22;13092;51.996;4.458;2023-01-29T10:21:27;6.30;99.90
25112;DHT22;13092;51.996;4.458;2023-01-29T10:24:08;6.30;99.90
25112;DHT22;13092;51.996;4.458;2023-01-29T10:26:39;6.30;99.90
25112;DHT22;13092;51.996;4.458;2023-01-29T10:29:11;6.30;99.90
25112;DHT22;13092;51.996;4.458;2023-01-29T10:31:42;6.40;99.90
25112;DHT22;13092;51.996;4.458;2023-01-29T10:34:15;6.30;99.90
25112;DHT22;13092;51.996;4.458;2023-01-29T10:36:48;6.30;99.90
25112;DHT22;13092;51.996;4.458;2023-01-29T10:39:17;6.40;99.90
25112;DHT22;13092;51.996;4.458;2023-01-29T10:42:01;6.30;99.90
25112;DHT22;13092;51.996;4.458;2023-01-29T10:44:47;6.30;99.90
25112;DHT22;13092;51.996;4.458;2023-01-29T10:47:40;6.40;99.90
25112;DHT22;13092;51.996;4.458;2023-01-29T10:50:18;6.30;99.90
25112;DHT22;13092;51.996;4.458;2023-01-29T10:53:05;6.40;99.90
25112;DHT22;13092;51.996;4.458;2023-01-29T10:55:45;6.40;99.90
25112;DHT22;13092;51.996;4.458;2023-01-29T10:58:24;6.40;99.90
25112;DHT22;13092;51.996;4.458;2023-01-29T11:00:55;6.30;99.90
25112;DHT22;13092;51.996;4.458;2023-01-29T11:03:25;6.50;99.90
25112;DHT22;13092;51.996;4.458;2023-01-29T11:06:02;6.50;99.90
25112;DHT22;13092;51.996;4.458;2023-01-29T11:08:39;6.60;99.90
25112;DHT22;13092;51.996;4.458;2023-01-29T11:11:12;6.50;99.90
25112;DHT22;13092;51.996;4.458;2023-01-29T11:13:44;6.50;99.90
25112;DHT22;13092;51.996;4.458;2023-01-29T11:16:14;6.50;99.90
25112;DHT22;13092;51.996;4.458;2023-01-29T11:18:54;6.50;99.90
25112;DHT22;13092;51.996;4.458;2023-01-29T11:21:23;6.50;99.90
25112;DHT22;13092;51.996;4.458;2023-01-29T11:24:06;6.50;99.90
25112;DHT22;13092;51.996;4.458;2023-01-29T11:26:39;6.50;99.90
25112;DHT22;13092;51.996;4.458;2023-01-29T11:29:28;6.50;99.90
25112;DHT22;13092;51.996;4.458;2023-01-29T11:31:58;6.50;99.90
25112;DHT22;13092;51.996;4.458;2023-01-29T11:34:27;6.50;99.90
25112;DHT22;13092;51.996;4.458;2023-01-29T11:36:59;6.50;99.90
25112;DHT22;13092;51.996;4.458;2023-01-29T11:39:31;6.50;99.90
25112;DHT22;13092;51.996;4.458;2023-01-29T11:42:01;6.50;99.90
25112;DHT22;13092;51.996;4.458;2023-01-29T11:44:31;6.50;99.90
25112;DHT22;13092;51.996;4.458;2023-01-29T11:47:11;6.50;99.90
25112;DHT22;13092;51.996;4.458;2023-01-29T11:49:45;6.60;99.90
25112;DHT22;13092;51.996;4.458;2023-01-29T11:52:16;6.60;99.90
25112;DHT22;13092;51.996;4.458;2023-01-29T11:54:49;6.60;99.90
25112;DHT22;13092;51.996;4.458;2023-01-29T11:57:25;6.60;99.90
25112;DHT22;13092;51.996;4.458;2023-01-29T12:00:00;6.50;99.90
25112;DHT22;13092;51.996;4.458;2023-01-29T12:02:33;6.60;99.90
25112;DHT22;13092;51.996;4.458;2023-01-29T12:05:13;6.60;99.90
25112;DHT22;13092;51.996;4.458;2023-01-29T12:07:44;6.60;99.90
25112;DHT22;13092;51.996;4.458;2023-01-29T12:10:34;6.60;99.90
25112;DHT22;13092;51.996;4.458;2023-01-29T12:13:21;6.70;99.90
25112;DHT22;13092;51.996;4.458;2023-01-29T12:16:10;6.60;99.90
25112;DHT22;13092;51.996;4.458;2023-01-29T12:18:41;6.70;99.90
25112;DHT22;13092;51.996;4.458;2023-01-29T12:21:13;6.70;99.90
25112;DHT22;13092;51.996;4.458;2023-01-29T12:23:51;6.80;99.90
25112;DHT22;13092;51.996;4.458;2023-01-29T12:26:26;6.80;99.90
25112;DHT22;13092;51.996;4.458;2023-01-29T12:29:10;6.80;99.90
25112;DHT22;13092;51.996;4.458;2023-01-29T12:31:45;6.90;99.90
25112;DHT22;13092;51.996;4.458;2023-01-29T12:34:21;6.90;99.90
25112;DHT22;13092;51.996;4.458;2023-01-29T12:36:55;7.20;99.90
25112;DHT22;13092;51.996;4.458;2023-01-29T12:39:36;7.00;99.90
25112;DHT22;13092;51.996;4.458;2023-01-29T12:49:56;6.80;99.90
25112;DHT22;13092;51.996;4.458;2023-01-29T12:52:36;7.00;99.90
25112;DHT22;13092;51.996;4.458;2023-01-29T12:55:12;6.90;99.90
25112;DHT22;13092;51.996;4.458;2023-01-29T12:57:47;7.00;99.90
25112;DHT22;13092;51.996;4.458;2023-01-29T13:00:21;6.90;99.90
25112;DHT22;13092;51.996;4.458;2023-01-29T13:02:55;6.90;99.90
25112;DHT22;13092;51.996;4.458;2023-01-29T13:05:29;6.90;99.90
25112;DHT22;13092;51.996;4.458;2023-01-29T13:08:04;6.90;99.90
25112;DHT22;13092;51.996;4.458;2023-01-29T13:10:37;6.90;99.90
25112;DHT22;13092;51.996;4.458;2023-01-29T13:13:14;7.10;99.90
25112;DHT22;13092;51.996;4.458;2023-01-29T13:15:43;6.90;99.90
25112;DHT22;13092;51.996;4.458;2023-01-29T13:18:30;6.90;99.90
25112;DHT22;13092;51.996;4.458;2023-01-29T13:21:03;7.00;99.90
25112;DHT22;13092;51.996;4.458;2023-01-29T13:23:35;7.00;99.90
25112;DHT22;13092;51.996;4.458;2023-01-29T13:26:05;7.00;99.90
25112;DHT22;13092;51.996;4.458;2023-01-29T13:28:33;7.00;99.90
25112;DHT22;13092;51.996;4.458;2023-01-29T13:31:25;7.10;99.90
25112;DHT22;13092;51.996;4.458;2023-01-29T13:34:01;7.10;99.90
25112;DHT22;13092;51.996;4.458;2023-01-29T13:36:36;7.10;99.90
25112;DHT22;13092;51.996;4.458;2023-01-29T13:39:18;7.20;99.90
25112;DHT22;13092;51.996;4.458;2023-01-29T13:41:47;7.10;99.90
25112;DHT22;13092;51.996;4.458;2023-01-29T13:44:22;7.10;99.90
25112;DHT22;13092;51.996;4.458;2023-01-29T13:46:54;7.10;99.90
25112;DHT22;13092;51.996;4.458;2023-01-29T13:49:33;7.10;99.90
25112;DHT22;13092;51.996;4.458;2023-01-29T13:52:18;7.10;99.90
25112;DHT22;13092;51.996;4.458;2023-01-29T13:54:56;7.10;99.90
25112;DHT22;13092;51.996;4.458;2023-01-29T13:57:46;7.20;99.90
25112;DHT22;13092;51.996;4.458;2023-01-29T14:03:52;7.20;99.90
25112;DHT22;13092;51.996;4.458;2023-01-29T14:06:46;7.20;99.90
25112;DHT22;13092;51.996;4.458;2023-01-29T14:12:52;7.10;99.90
25112;DHT22;13092;51.996;4.458;2023-01-29T14:15:26;7.00;99.90
25112;DHT22;13092;51.996;4.458;2023-01-29T14:18:02;7.00;99.90
25112;DHT22;13092;51.996;4.458;2023-01-29T14:20:36;7.00;99.90
25112;DHT22;13092;51.996;4.458;2023-01-29T14:23:35;7.00;99.90
25112;DHT22;13092;51.996;4.458;2023-01-29T14:26:22;7.00;99.90
25112;DHT22;13092;51.996;4.458;2023-01-29T14:28:52;7.00;99.90
25112;DHT22;13092;51.996;4.458;2023-01-29T14:31:29;7.00;99.90
25112;DHT22;13092;51.996;4.458;2023-01-29T14:34:01;7.00;99.90
25112;DHT22;13092;51.996;4.458;2023-01-29T14:36:38;6.90;99.90
25112;DHT22;13092;51.996;4.458;2023-01-29T14:39:19;6.90;99.90
25112;DHT22;13092;51.996;4.458;2023-01-29T14:41:51;6.90;99.90
25112;DHT22;13092;51.996;4.458;2023-01-29T14:47:54;6.80;99.90
25112;DHT22;13092;51.996;4.458;2023-01-29T14:53:41;6.80;99.90
25112;DHT22;13092;51.996;4.458;2023-01-29T14:56:13;6.80;99.90
25112;DHT22;13092;51.996;4.458;2023-01-29T14:58:46;6.70;99.90
25112;DHT22;13092;51.996;4.458;2023-01-29T15:01:22;6.80;99.90
25112;DHT22;13092;51.996;4.458;2023-01-29T15:03:54;6.80;99.90
25112;DHT22;13092;51.996;4.458;2023-01-29T15:06:29;6.70;99.90
25112;DHT22;13092;51.996;4.458;2023-01-29T15:09:04;6.70;99.90
25112;DHT22;13092;51.996;4.458;2023-01-29T15:11:46;6.70;99.90
25112;DHT22;13092;51.996;4.458;2023-01-29T15:14:28;6.70;99.90
25112;DHT22;13092;51.996;4.458;2023-01-29T15:17:05;6.60;99.90
25112;DHT22;13092;51.996;4.458;2023-01-29T15:19:35;6.60;99.90
25112;DHT22;13092;51.996;4.458;2023-01-29T15:22:08;6.60;99.90
25112;DHT22;13092;51.996;4.458;2023-01-29T15:24:38;6.60;99.90
25112;DHT22;13092;51.996;4.458;2023-01-29T15:27:11;6.60;99.90
25112;DHT22;13092;51.996;4.458;2023-01-29T15:29:43;6.60;99.90
25112;DHT22;13092;51.996;4.458;2023-01-29T15:32:15;6.50;99.90
25112;DHT22;13092;51.996;4.458;2023-01-29T15:34:46;6.50;99.90
25112;DHT22;13092;51.996;4.458;2023-01-29T15:37:29;6.40;99.90
25112;DHT22;13092;51.996;4.458;2023-01-29T15:39:58;6.40;99.90
25112;DHT22;13092;51.996;4.458;2023-01-29T15:42:27;6.40;99.90
25112;DHT22;13092;51.996;4.458;2023-01-29T15:44:57;6.40;99.90
25112;DHT22;13092;51.996;4.458;2023-01-29T15:47:30;6.40;99.90
25112;DHT22;13092;51.996;4.458;2023-01-29T15:49:59;6.40;99.90
25112;DHT22;13092;51.996;4.458;2023-01-29T15:52:29;6.40;99.90
25112;DHT22;13092;51.996;4.458;2023-01-29T15:55:04;6.40;99.90
25112;DHT22;13092;51.996;4.458;2023-01-29T15:57:36;6.40;99.90
25112;DHT22;13092;51.996;4.458;2023-01-29T16:00:20;6.40;99.90
25112;DHT22;13092;51.996;4.458;2023-01-29T16:02:48;6.40;99.90
25112;DHT22;13092;51.996;4.458;2023-01-29T16:05:19;6.40;99.90
25112;DHT22;13092;51.996;4.458;2023-01-29T16:07:49;6.40;99.90
25112;DHT22;13092;51.996;4.458;2023-01-29T16:10:20;6.40;99.90
25112;DHT22;13092;51.996;4.458;2023-01-29T16:12:49;6.50;99.90
25112;DHT22;13092;51.996;4.458;2023-01-29T16:15:30;6.40;99.90
25112;DHT22;13092;51.996;4.458;2023-01-29T16:18:19;6.40;99.90
25112;DHT22;13092;51.996;4.458;2023-01-29T16:20:51;6.50;99.90
25112;DHT22;13092;51.996;4.458;2023-01-29T16:23:23;6.50;99.90
25112;DHT22;13092;51.996;4.458;2023-01-29T16:25:54;6.50;99.90
25112;DHT22;13092;51.996;4.458;2023-01-29T16:28:23;6.50;99.90
25112;DHT22;13092;51.996;4.458;2023-01-29T16:30:56;6.50;99.90
25112;DHT22;13092;51.996;4.458;2023-01-29T16:33:32;6.50;99.90
25112;DHT22;13092;51.996;4.458;2023-01-29T16:36:02;6.50;99.90
25112;DHT22;13092;51.996;4.458;2023-01-29T16:38:32;6.50;99.90
25112;DHT22;13092;51.996;4.458;2023-01-29T16:41:12;6.50;99.90
25112;DHT22;13092;51.996;4.458;2023-01-29T16:43:50;6.50;99.90
25112;DHT22;13092;51.996;4.458;2023-01-29T16:46:23;6.60;99.90
25112;DHT22;13092;51.996;4.458;2023-01-29T16:48:53;6.50;99.90